sensor_id;sensor_type;location;lat;lon;timestamp;P1;durP1;ratioP1;P2;durP2;ratioP2
75787;SDS011;64406;50.024;14.492;2024-02-26T00:01:27;31.77;;;17.48;;
75787;SDS011;64406;50.024;14.492;2024-02-26T00:03:57;33.70;;;17.95;;
75787;SDS011;64406;50.024;14.492;2024-02-26T00:06:24;38.38;;;18.00;;
75787;SDS011;64406;50.024;14.492;2024-02-26T00:08:50;37.58;;;19.50;;
75787;SDS011;64406;50.024;14.492;2024-02-26T00:11:16;37.92;;;19.60;;
75787;SDS011;64406;50.024;14.492;2024-02-26T00:13:41;34.08;;;18.20;;
75787;SDS011;64406;50.024;14.492;2024-02-26T00:16:07;39.20;;;18.65;;
75787;SDS011;64406;50.024;14.492;2024-02-26T00:18:33;35.17;;;18.52;;
75787;SDS011;64406;50.024;14.492;2024-02-26T00:20:59;38.60;;;19.48;;
75787;SDS011;64406;50.024;14.492;2024-02-26T00:23:26;32.35;;;17.58;;
75787;SDS011;64406;50.024;14.492;2024-02-26T00:25:52;35.80;;;17.92;;
75787;SDS011;64406;50.024;14.492;2024-02-26T00:28:18;38.35;;;18.58;;
75787;SDS011;64406;50.024;14.492;2024-02-26T00:30:45;38.17;;;19.38;;
75787;SDS011;64406;50.024;14.492;2024-02-26T00:33:11;44.38;;;21.60;;
75787;SDS011;64406;50.024;14.492;2024-02-26T00:35:36;51.05;;;22.67;;
75787;SDS011;64406;50.024;14.492;2024-02-26T00:38:02;47.42;;;22.23;;
75787;SDS011;64406;50.024;14.492;2024-02-26T00:40:28;40.08;;;21.02;;
75787;SDS011;64406;50.024;14.492;2024-02-26T00:42:54;40.47;;;20.85;;
75787;SDS011;64406;50.024;14.492;2024-02-26T00:45:19;39.75;;;20.48;;
75787;SDS011;64406;50.024;14.492;2024-02-26T00:47:45;40.05;;;20.50;;
75787;SDS011;64406;50.024;14.492;2024-02-26T00:50:12;34.47;;;17.65;;
75787;SDS011;64406;50.024;14.492;2024-02-26T00:52:38;35.33;;;19.10;;
75787;SDS011;64406;50.024;14.492;2024-02-26T00:55:04;37.60;;;19.92;;
75787;SDS011;64406;50.024;14.492;2024-02-26T00:57:30;38.25;;;19.27;;
75787;SDS011;64406;50.024;14.492;2024-02-26T00:59:55;36.40;;;19.40;;
75787;SDS011;64406;50.024;14.492;2024-02-26T01:02:22;41.33;;;19.75;;
75787;SDS011;64406;50.024;14.492;2024-02-26T01:04:48;44.78;;;22.50;;
75787;SDS011;64406;50.024;14.492;2024-02-26T01:07:13;43.25;;;20.27;;
75787;SDS011;64406;50.024;14.492;2024-02-26T01:09:39;49.17;;;23.08;;
75787;SDS011;64406;50.024;14.492;2024-02-26T01:12:05;54.08;;;23.00;;
75787;SDS011;64406;50.024;14.492;2024-02-26T01:14:30;52.83;;;23.65;;
75787;SDS011;64406;50.024;14.492;2024-02-26T01:16:56;52.20;;;23.73;;
75787;SDS011;64406;50.024;14.492;2024-02-26T01:19:22;43.25;;;22.33;;
75787;SDS011;64406;50.024;14.492;2024-02-26T01:21:48;47.50;;;23.05;;
75787;SDS011;64406;50.024;14.492;2024-02-26T01:24:13;49.55;;;22.48;;
75787;SDS011;64406;50.024;14.492;2024-02-26T01:26:39;57.85;;;24.02;;
75787;SDS011;64406;50.024;14.492;2024-02-26T01:29:04;57.63;;;24.65;;
75787;SDS011;64406;50.024;14.492;2024-02-26T01:31:30;51.20;;;23.52;;
75787;SDS011;64406;50.024;14.492;2024-02-26T01:33:56;57.00;;;22.92;;
75787;SDS011;64406;50.024;14.492;2024-02-26T01:36:22;54.15;;;25.13;;
75787;SDS011;64406;50.024;14.492;2024-02-26T01:38:47;61.97;;;23.55;;
75787;SDS011;64406;50.024;14.492;2024-02-26T01:41:13;85.93;;;25.90;;
75787;SDS011;64406;50.024;14.492;2024-02-26T01:43:39;62.97;;;22.95;;
75787;SDS011;64406;50.024;14.492;2024-02-26T01:46:05;54.13;;;22.25;;
75787;SDS011;64406;50.024;14.492;2024-02-26T01:48:33;111.78;;;24.80;;
75787;SDS011;64406;50.024;14.492;2024-02-26T01:50:59;79.80;;;23.30;;
75787;SDS011;64406;50.024;14.492;2024-02-26T01:53:24;95.43;;;25.85;;
75787;SDS011;64406;50.024;14.492;2024-02-26T01:55:50;58.45;;;23.13;;
75787;SDS011;64406;50.024;14.492;2024-02-26T01:58:16;52.58;;;22.88;;
75787;SDS011;64406;50.024;14.492;2024-02-26T02:00:42;52.53;;;22.02;;
75787;SDS011;64406;50.024;14.492;2024-02-26T02:03:07;53.97;;;20.98;;
75787;SDS011;64406;50.024;14.492;2024-02-26T02:05:34;50.33;;;22.63;;
75787;SDS011;64406;50.024;14.492;2024-02-26T02:08:06;47.83;;;20.55;;
75787;SDS011;64406;50.024;14.492;2024-02-26T02:10:33;53.00;;;21.38;;
75787;SDS011;64406;50.024;14.492;2024-02-26T02:12:59;73.82;;;22.20;;
75787;SDS011;64406;50.024;14.492;2024-02-26T02:15:25;91.97;;;26.02;;
75787;SDS011;64406;50.024;14.492;2024-02-26T02:17:50;117.80;;;25.55;;
75787;SDS011;64406;50.024;14.492;2024-02-26T02:20:16;130.83;;;24.30;;
75787;SDS011;64406;50.024;14.492;2024-02-26T02:22:44;104.03;;;23.87;;
75787;SDS011;64406;50.024;14.492;2024-02-26T02:25:10;88.43;;;25.73;;
75787;SDS011;64406;50.024;14.492;2024-02-26T02:27:36;78.20;;;23.47;;
75787;SDS011;64406;50.024;14.492;2024-02-26T02:30:02;65.87;;;21.87;;
75787;SDS011;64406;50.024;14.492;2024-02-26T02:32:28;144.55;;;28.27;;
75787;SDS011;64406;50.024;14.492;2024-02-26T02:34:55;146.07;;;28.17;;
75787;SDS011;64406;50.024;14.492;2024-02-26T02:37:21;107.70;;;25.77;;
75787;SDS011;64406;50.024;14.492;2024-02-26T02:39:46;86.30;;;23.87;;
75787;SDS011;64406;50.024;14.492;2024-02-26T02:42:12;49.75;;;21.88;;
75787;SDS011;64406;50.024;14.492;2024-02-26T02:44:38;50.50;;;23.77;;
75787;SDS011;64406;50.024;14.492;2024-02-26T02:47:03;59.77;;;23.20;;
75787;SDS011;64406;50.024;14.492;2024-02-26T02:49:29;58.70;;;22.23;;
75787;SDS011;64406;50.024;14.492;2024-02-26T02:51:54;51.45;;;19.08;;
75787;SDS011;64406;50.024;14.492;2024-02-26T02:54:20;63.05;;;20.00;;
75787;SDS011;64406;50.024;14.492;2024-02-26T02:56:46;63.73;;;19.80;;
75787;SDS011;64406;50.024;14.492;2024-02-26T02:59:11;60.72;;;20.63;;
75787;SDS011;64406;50.024;14.492;2024-02-26T03:01:37;66.37;;;20.20;;
75787;SDS011;64406;50.024;14.492;2024-02-26T03:04:03;80.68;;;21.45;;
75787;SDS011;64406;50.024;14.492;2024-02-26T03:06:28;60.42;;;21.23;;
75787;SDS011;64406;50.024;14.492;2024-02-26T03:08:54;67.22;;;23.00;;
75787;SDS011;64406;50.024;14.492;2024-02-26T03:11:20;56.53;;;21.42;;
75787;SDS011;64406;50.024;14.492;2024-02-26T03:13:46;68.47;;;24.10;;
75787;SDS011;64406;50.024;14.492;2024-02-26T03:16:11;61.27;;;24.40;;
75787;SDS011;64406;50.024;14.492;2024-02-26T03:18:40;52.93;;;21.80;;
75787;SDS011;64406;50.024;14.492;2024-02-26T03:21:06;62.40;;;22.67;;
75787;SDS011;64406;50.024;14.492;2024-02-26T03:23:32;53.73;;;22.90;;
75787;SDS011;64406;50.024;14.492;2024-02-26T03:26:01;71.83;;;22.77;;
75787;SDS011;64406;50.024;14.492;2024-02-26T03:28:29;48.73;;;23.10;;
75787;SDS011;64406;50.024;14.492;2024-02-26T03:30:55;48.00;;;22.63;;
75787;SDS011;64406;50.024;14.492;2024-02-26T03:33:21;42.60;;;20.50;;
75787;SDS011;64406;50.024;14.492;2024-02-26T03:35:47;47.90;;;23.80;;
75787;SDS011;64406;50.024;14.492;2024-02-26T03:38:13;50.07;;;24.00;;
75787;SDS011;64406;50.024;14.492;2024-02-26T03:40:38;53.10;;;24.23;;
75787;SDS011;64406;50.024;14.492;2024-02-26T03:43:04;51.37;;;24.97;;
75787;SDS011;64406;50.024;14.492;2024-02-26T03:45:32;48.40;;;23.97;;
75787;SDS011;64406;50.024;14.492;2024-02-26T03:47:57;61.33;;;26.83;;
75787;SDS011;64406;50.024;14.492;2024-02-26T03:50:23;54.13;;;25.57;;
75787;SDS011;64406;50.024;14.492;2024-02-26T03:52:49;54.60;;;24.37;;
75787;SDS011;64406;50.024;14.492;2024-02-26T03:55:14;56.70;;;24.97;;
75787;SDS011;64406;50.024;14.492;2024-02-26T03:57:40;57.90;;;24.93;;
75787;SDS011;64406;50.024;14.492;2024-02-26T04:00:06;53.97;;;23.33;;
75787;SDS011;64406;50.024;14.492;2024-02-26T04:02:32;54.97;;;23.67;;
75787;SDS011;64406;50.024;14.492;2024-02-26T04:04:58;98.43;;;27.07;;
75787;SDS011;64406;50.024;14.492;2024-02-26T04:07:24;62.13;;;25.37;;
75787;SDS011;64406;50.024;14.492;2024-02-26T04:09:50;60.67;;;25.17;;
75787;SDS011;64406;50.024;14.492;2024-02-26T04:12:16;63.90;;;24.97;;
75787;SDS011;64406;50.024;14.492;2024-02-26T04:14:41;95.03;;;28.40;;
75787;SDS011;64406;50.024;14.492;2024-02-26T04:17:07;112.60;;;27.73;;
75787;SDS011;64406;50.024;14.492;2024-02-26T04:19:32;83.83;;;24.83;;
75787;SDS011;64406;50.024;14.492;2024-02-26T04:21:59;80.53;;;26.90;;
75787;SDS011;64406;50.024;14.492;2024-02-26T04:24:24;95.17;;;27.03;;
75787;SDS011;64406;50.024;14.492;2024-02-26T04:26:50;135.27;;;29.40;;
75787;SDS011;64406;50.024;14.492;2024-02-26T04:29:15;197.73;;;30.90;;
75787;SDS011;64406;50.024;14.492;2024-02-26T04:31:41;171.20;;;31.53;;
75787;SDS011;64406;50.024;14.492;2024-02-26T04:34:08;157.17;;;30.07;;
75787;SDS011;64406;50.024;14.492;2024-02-26T04:36:33;120.47;;;27.90;;
75787;SDS011;64406;50.024;14.492;2024-02-26T04:38:59;202.33;;;29.23;;
75787;SDS011;64406;50.024;14.492;2024-02-26T04:41:25;114.13;;;26.73;;
75787;SDS011;64406;50.024;14.492;2024-02-26T04:43:50;127.70;;;28.93;;
75787;SDS011;64406;50.024;14.492;2024-02-26T04:46:16;219.47;;;31.97;;
75787;SDS011;64406;50.024;14.492;2024-02-26T04:48:41;172.73;;;31.03;;
75787;SDS011;64406;50.024;14.492;2024-02-26T04:51:07;291.60;;;36.73;;
75787;SDS011;64406;50.024;14.492;2024-02-26T04:53:33;238.40;;;34.43;;
75787;SDS011;64406;50.024;14.492;2024-02-26T04:55:58;311.73;;;38.67;;
75787;SDS011;64406;50.024;14.492;2024-02-26T04:58:24;250.73;;;36.03;;
75787;SDS011;64406;50.024;14.492;2024-02-26T05:00:50;189.53;;;31.17;;
75787;SDS011;64406;50.024;14.492;2024-02-26T05:03:15;238.80;;;35.73;;
75787;SDS011;64406;50.024;14.492;2024-02-26T05:05:44;145.47;;;29.63;;
75787;SDS011;64406;50.024;14.492;2024-02-26T05:08:09;112.07;;;26.37;;
75787;SDS011;64406;50.024;14.492;2024-02-26T05:10:36;146.10;;;29.00;;
75787;SDS011;64406;50.024;14.492;2024-02-26T05:13:05;143.53;;;27.97;;
75787;SDS011;64406;50.024;14.492;2024-02-26T05:15:31;124.20;;;25.80;;
75787;SDS011;64406;50.024;14.492;2024-02-26T05:17:57;157.63;;;28.47;;
75787;SDS011;64406;50.024;14.492;2024-02-26T05:20:23;162.93;;;28.73;;
75787;SDS011;64406;50.024;14.492;2024-02-26T05:22:48;187.87;;;28.50;;
75787;SDS011;64406;50.024;14.492;2024-02-26T05:25:15;254.27;;;32.67;;
75787;SDS011;64406;50.024;14.492;2024-02-26T05:27:41;155.27;;;29.43;;
75787;SDS011;64406;50.024;14.492;2024-02-26T05:30:07;124.53;;;26.87;;
75787;SDS011;64406;50.024;14.492;2024-02-26T05:32:32;153.83;;;27.17;;
75787;SDS011;64406;50.024;14.492;2024-02-26T05:34:58;205.27;;;32.77;;
75787;SDS011;64406;50.024;14.492;2024-02-26T05:37:24;178.90;;;30.93;;
75787;SDS011;64406;50.024;14.492;2024-02-26T05:39:49;167.43;;;29.73;;
75787;SDS011;64406;50.024;14.492;2024-02-26T05:42:15;175.43;;;30.73;;
75787;SDS011;64406;50.024;14.492;2024-02-26T05:44:41;119.40;;;27.27;;
75787;SDS011;64406;50.024;14.492;2024-02-26T05:47:06;196.93;;;29.63;;
75787;SDS011;64406;50.024;14.492;2024-02-26T05:49:32;147.20;;;27.20;;
75787;SDS011;64406;50.024;14.492;2024-02-26T05:51:58;192.43;;;26.43;;
75787;SDS011;64406;50.024;14.492;2024-02-26T05:54:24;138.03;;;26.63;;
75787;SDS011;64406;50.024;14.492;2024-02-26T05:56:50;189.30;;;29.17;;
75787;SDS011;64406;50.024;14.492;2024-02-26T05:59:15;159.95;;;24.35;;
75787;SDS011;64406;50.024;14.492;2024-02-26T06:01:41;100.73;;;21.67;;
75787;SDS011;64406;50.024;14.492;2024-02-26T06:04:07;104.25;;;21.88;;
75787;SDS011;64406;50.024;14.492;2024-02-26T06:06:32;117.57;;;23.00;;
75787;SDS011;64406;50.024;14.492;2024-02-26T06:08:58;167.40;;;25.92;;
75787;SDS011;64406;50.024;14.492;2024-02-26T06:11:24;143.30;;;24.88;;
75787;SDS011;64406;50.024;14.492;2024-02-26T06:13:49;126.95;;;22.83;;
75787;SDS011;64406;50.024;14.492;2024-02-26T06:16:15;160.43;;;26.55;;
75787;SDS011;64406;50.024;14.492;2024-02-26T06:18:41;148.83;;;27.33;;
75787;SDS011;64406;50.024;14.492;2024-02-26T06:21:10;84.47;;;22.02;;
75787;SDS011;64406;50.024;14.492;2024-02-26T06:23:36;123.35;;;22.98;;
75787;SDS011;64406;50.024;14.492;2024-02-26T06:26:03;157.15;;;26.38;;
75787;SDS011;64406;50.024;14.492;2024-02-26T06:28:28;113.47;;;26.57;;
75787;SDS011;64406;50.024;14.492;2024-02-26T06:30:55;119.53;;;25.90;;
75787;SDS011;64406;50.024;14.492;2024-02-26T06:33:21;126.77;;;27.30;;
75787;SDS011;64406;50.024;14.492;2024-02-26T06:35:47;148.88;;;28.52;;
75787;SDS011;64406;50.024;14.492;2024-02-26T06:38:12;170.90;;;29.73;;
75787;SDS011;64406;50.024;14.492;2024-02-26T06:40:39;136.82;;;27.98;;
75787;SDS011;64406;50.024;14.492;2024-02-26T06:43:05;178.52;;;27.85;;
75787;SDS011;64406;50.024;14.492;2024-02-26T06:45:31;138.38;;;26.80;;
75787;SDS011;64406;50.024;14.492;2024-02-26T06:47:57;193.02;;;29.90;;
75787;SDS011;64406;50.024;14.492;2024-02-26T06:50:23;180.35;;;29.00;;
75787;SDS011;64406;50.024;14.492;2024-02-26T06:52:48;107.75;;;24.95;;
75787;SDS011;64406;50.024;14.492;2024-02-26T06:55:14;123.47;;;27.25;;
75787;SDS011;64406;50.024;14.492;2024-02-26T06:57:40;172.98;;;27.85;;
75787;SDS011;64406;50.024;14.492;2024-02-26T07:00:06;131.95;;;27.80;;
75787;SDS011;64406;50.024;14.492;2024-02-26T07:02:32;125.40;;;25.98;;
75787;SDS011;64406;50.024;14.492;2024-02-26T07:04:57;97.78;;;24.35;;
75787;SDS011;64406;50.024;14.492;2024-02-26T07:07:24;81.03;;;22.75;;
75787;SDS011;64406;50.024;14.492;2024-02-26T07:09:50;102.93;;;24.13;;
75787;SDS011;64406;50.024;14.492;2024-02-26T07:12:16;76.57;;;20.58;;
75787;SDS011;64406;50.024;14.492;2024-02-26T07:14:41;59.55;;;19.27;;
75787;SDS011;64406;50.024;14.492;2024-02-26T07:17:07;65.15;;;19.58;;
75787;SDS011;64406;50.024;14.492;2024-02-26T07:19:33;68.35;;;20.85;;
75787;SDS011;64406;50.024;14.492;2024-02-26T07:21:59;60.88;;;18.92;;
75787;SDS011;64406;50.024;14.492;2024-02-26T07:24:27;66.22;;;18.45;;
75787;SDS011;64406;50.024;14.492;2024-02-26T07:26:53;74.93;;;21.33;;
75787;SDS011;64406;50.024;14.492;2024-02-26T07:29:20;62.03;;;19.75;;
75787;SDS011;64406;50.024;14.492;2024-02-26T07:31:47;66.80;;;19.05;;
75787;SDS011;64406;50.024;14.492;2024-02-26T07:34:12;56.83;;;20.45;;
75787;SDS011;64406;50.024;14.492;2024-02-26T07:36:39;66.22;;;19.83;;
75787;SDS011;64406;50.024;14.492;2024-02-26T07:39:05;70.88;;;21.80;;
75787;SDS011;64406;50.024;14.492;2024-02-26T07:41:30;44.20;;;17.92;;
75787;SDS011;64406;50.024;14.492;2024-02-26T07:43:56;51.75;;;18.95;;
75787;SDS011;64406;50.024;14.492;2024-02-26T07:46:22;64.63;;;20.02;;
75787;SDS011;64406;50.024;14.492;2024-02-26T07:48:47;63.65;;;20.30;;
75787;SDS011;64406;50.024;14.492;2024-02-26T07:51:13;69.90;;;20.00;;
75787;SDS011;64406;50.024;14.492;2024-02-26T07:53:39;66.32;;;21.88;;
75787;SDS011;64406;50.024;14.492;2024-02-26T07:56:06;66.93;;;21.33;;
75787;SDS011;64406;50.024;14.492;2024-02-26T07:58:34;61.58;;;22.33;;
75787;SDS011;64406;50.024;14.492;2024-02-26T08:01:01;82.90;;;22.65;;
75787;SDS011;64406;50.024;14.492;2024-02-26T08:03:26;71.00;;;23.60;;
75787;SDS011;64406;50.024;14.492;2024-02-26T08:05:53;71.55;;;22.48;;
75787;SDS011;64406;50.024;14.492;2024-02-26T08:08:18;61.33;;;21.65;;
75787;SDS011;64406;50.024;14.492;2024-02-26T08:10:44;48.63;;;19.65;;
75787;SDS011;64406;50.024;14.492;2024-02-26T08:13:09;44.53;;;18.80;;
75787;SDS011;64406;50.024;14.492;2024-02-26T08:15:35;54.38;;;20.90;;
75787;SDS011;64406;50.024;14.492;2024-02-26T08:18:04;52.72;;;20.60;;
75787;SDS011;64406;50.024;14.492;2024-02-26T08:20:30;43.05;;;18.45;;
75787;SDS011;64406;50.024;14.492;2024-02-26T08:22:56;36.30;;;17.42;;
75787;SDS011;64406;50.024;14.492;2024-02-26T08:25:23;41.88;;;18.98;;
75787;SDS011;64406;50.024;14.492;2024-02-26T08:27:49;37.28;;;18.20;;
75787;SDS011;64406;50.024;14.492;2024-02-26T08:30:15;35.70;;;17.40;;
75787;SDS011;64406;50.024;14.492;2024-02-26T08:32:45;33.33;;;16.92;;
75787;SDS011;64406;50.024;14.492;2024-02-26T08:35:12;30.25;;;15.82;;
75787;SDS011;64406;50.024;14.492;2024-02-26T08:37:38;34.83;;;15.68;;
75787;SDS011;64406;50.024;14.492;2024-02-26T08:40:04;29.80;;;16.05;;
75787;SDS011;64406;50.024;14.492;2024-02-26T08:42:31;28.98;;;15.63;;
75787;SDS011;64406;50.024;14.492;2024-02-26T08:44:57;36.22;;;15.65;;
75787;SDS011;64406;50.024;14.492;2024-02-26T08:47:25;32.10;;;15.40;;
75787;SDS011;64406;50.024;14.492;2024-02-26T08:49:51;34.58;;;16.75;;
75787;SDS011;64406;50.024;14.492;2024-02-26T08:52:17;33.85;;;18.08;;
75787;SDS011;64406;50.024;14.492;2024-02-26T08:54:42;41.95;;;17.23;;
75787;SDS011;64406;50.024;14.492;2024-02-26T08:57:08;35.25;;;16.75;;
75787;SDS011;64406;50.024;14.492;2024-02-26T08:59:34;39.83;;;17.48;;
75787;SDS011;64406;50.024;14.492;2024-02-26T09:01:59;33.92;;;16.33;;
75787;SDS011;64406;50.024;14.492;2024-02-26T09:04:25;34.45;;;16.85;;
75787;SDS011;64406;50.024;14.492;2024-02-26T09:06:52;33.83;;;17.50;;
75787;SDS011;64406;50.024;14.492;2024-02-26T09:09:19;33.60;;;17.45;;
75787;SDS011;64406;50.024;14.492;2024-02-26T09:11:47;28.92;;;15.75;;
75787;SDS011;64406;50.024;14.492;2024-02-26T09:14:17;26.33;;;14.90;;
75787;SDS011;64406;50.024;14.492;2024-02-26T09:16:43;37.22;;;15.85;;
75787;SDS011;64406;50.024;14.492;2024-02-26T09:19:08;46.97;;;19.38;;
75787;SDS011;64406;50.024;14.492;2024-02-26T09:21:34;49.40;;;19.80;;
75787;SDS011;64406;50.024;14.492;2024-02-26T09:24:00;50.15;;;19.77;;
75787;SDS011;64406;50.024;14.492;2024-02-26T09:26:25;44.47;;;20.13;;
75787;SDS011;64406;50.024;14.492;2024-02-26T09:28:51;41.80;;;17.92;;
75787;SDS011;64406;50.024;14.492;2024-02-26T09:31:17;40.60;;;19.45;;
75787;SDS011;64406;50.024;14.492;2024-02-26T09:33:43;39.80;;;17.88;;
75787;SDS011;64406;50.024;14.492;2024-02-26T09:36:09;37.50;;;18.42;;
75787;SDS011;64406;50.024;14.492;2024-02-26T09:38:36;44.50;;;20.08;;
75787;SDS011;64406;50.024;14.492;2024-02-26T09:41:04;42.55;;;20.58;;
75787;SDS011;64406;50.024;14.492;2024-02-26T09:43:34;43.05;;;21.98;;
75787;SDS011;64406;50.024;14.492;2024-02-26T09:46:04;39.85;;;18.98;;
75787;SDS011;64406;50.024;14.492;2024-02-26T09:48:31;48.13;;;21.88;;
75787;SDS011;64406;50.024;14.492;2024-02-26T09:51:00;37.80;;;19.05;;
75787;SDS011;64406;50.024;14.492;2024-02-26T09:53:28;42.08;;;18.63;;
75787;SDS011;64406;50.024;14.492;2024-02-26T09:55:57;38.08;;;18.02;;
75787;SDS011;64406;50.024;14.492;2024-02-26T09:58:23;39.28;;;19.52;;
75787;SDS011;64406;50.024;14.492;2024-02-26T10:00:53;34.83;;;17.67;;
75787;SDS011;64406;50.024;14.492;2024-02-26T10:03:28;33.63;;;16.17;;
75787;SDS011;64406;50.024;14.492;2024-02-26T10:05:59;36.42;;;17.88;;
75787;SDS011;64406;50.024;14.492;2024-02-26T10:08:28;36.25;;;15.82;;
75787;SDS011;64406;50.024;14.492;2024-02-26T10:10:55;34.20;;;17.80;;
75787;SDS011;64406;50.024;14.492;2024-02-26T10:13:21;31.85;;;15.68;;
75787;SDS011;64406;50.024;14.492;2024-02-26T10:15:48;35.65;;;15.05;;
75787;SDS011;64406;50.024;14.492;2024-02-26T10:18:14;29.33;;;14.20;;
75787;SDS011;64406;50.024;14.492;2024-02-26T10:20:39;31.17;;;16.40;;
75787;SDS011;64406;50.024;14.492;2024-02-26T10:23:05;32.40;;;15.55;;
75787;SDS011;64406;50.024;14.492;2024-02-26T10:25:31;31.88;;;16.02;;
75787;SDS011;64406;50.024;14.492;2024-02-26T10:28:00;32.13;;;16.27;;
75787;SDS011;64406;50.024;14.492;2024-02-26T10:30:27;26.13;;;14.55;;
75787;SDS011;64406;50.024;14.492;2024-02-26T10:32:54;34.03;;;16.23;;
75787;SDS011;64406;50.024;14.492;2024-02-26T10:35:19;29.58;;;15.32;;
75787;SDS011;64406;50.024;14.492;2024-02-26T10:37:46;31.98;;;16.77;;
75787;SDS011;64406;50.024;14.492;2024-02-26T10:40:12;34.95;;;16.25;;
75787;SDS011;64406;50.024;14.492;2024-02-26T10:42:39;39.83;;;18.00;;
75787;SDS011;64406;50.024;14.492;2024-02-26T10:45:06;33.50;;;16.25;;
75787;SDS011;64406;50.024;14.492;2024-02-26T10:47:34;38.22;;;17.63;;
75787;SDS011;64406;50.024;14.492;2024-02-26T10:50:05;35.17;;;18.02;;
75787;SDS011;64406;50.024;14.492;2024-02-26T10:52:32;36.42;;;19.42;;
75787;SDS011;64406;50.024;14.492;2024-02-26T10:55:00;31.65;;;17.38;;
75787;SDS011;64406;50.024;14.492;2024-02-26T10:57:48;36.58;;;17.75;;
75787;SDS011;64406;50.024;14.492;2024-02-26T11:00:17;35.90;;;17.90;;
75787;SDS011;64406;50.024;14.492;2024-02-26T11:02:44;33.58;;;16.55;;
75787;SDS011;64406;50.024;14.492;2024-02-26T11:05:11;28.63;;;15.93;;
75787;SDS011;64406;50.024;14.492;2024-02-26T11:07:37;26.90;;;15.93;;
75787;SDS011;64406;50.024;14.492;2024-02-26T11:10:05;33.72;;;16.25;;
75787;SDS011;64406;50.024;14.492;2024-02-26T11:12:32;33.50;;;17.48;;
75787;SDS011;64406;50.024;14.492;2024-02-26T11:15:00;32.05;;;17.30;;
75787;SDS011;64406;50.024;14.492;2024-02-26T11:17:27;34.67;;;16.45;;
75787;SDS011;64406;50.024;14.492;2024-02-26T11:19:56;33.78;;;18.58;;
75787;SDS011;64406;50.024;14.492;2024-02-26T11:22:26;34.17;;;16.67;;
75787;SDS011;64406;50.024;14.492;2024-02-26T11:24:52;39.05;;;18.35;;
75787;SDS011;64406;50.024;14.492;2024-02-26T11:27:21;38.30;;;17.92;;
75787;SDS011;64406;50.024;14.492;2024-02-26T11:29:55;33.53;;;15.98;;
75787;SDS011;64406;50.024;14.492;2024-02-26T11:32:26;36.08;;;16.83;;
75787;SDS011;64406;50.024;14.492;2024-02-26T11:34:53;34.53;;;18.00;;
75787;SDS011;64406;50.024;14.492;2024-02-26T11:37:19;37.00;;;16.92;;
75787;SDS011;64406;50.024;14.492;2024-02-26T11:39:45;37.40;;;16.48;;
75787;SDS011;64406;50.024;14.492;2024-02-26T11:42:15;37.75;;;16.10;;
75787;SDS011;64406;50.024;14.492;2024-02-26T11:44:42;35.60;;;17.08;;
75787;SDS011;64406;50.024;14.492;2024-02-26T11:47:12;32.15;;;16.63;;
75787;SDS011;64406;50.024;14.492;2024-02-26T11:49:44;25.23;;;14.10;;
75787;SDS011;64406;50.024;14.492;2024-02-26T11:52:10;28.17;;;13.45;;
75787;SDS011;64406;50.024;14.492;2024-02-26T11:54:40;30.02;;;14.63;;
75787;SDS011;64406;50.024;14.492;2024-02-26T11:57:47;28.45;;;13.27;;
75787;SDS011;64406;50.024;14.492;2024-02-26T12:02:47;31.83;;;14.95;;
75787;SDS011;64406;50.024;14.492;2024-02-26T12:05:18;31.80;;;13.93;;
75787;SDS011;64406;50.024;14.492;2024-02-26T12:10:32;27.52;;;13.23;;
75787;SDS011;64406;50.024;14.492;2024-02-26T12:13:05;27.33;;;14.13;;
75787;SDS011;64406;50.024;14.492;2024-02-26T12:15:33;34.25;;;15.50;;
75787;SDS011;64406;50.024;14.492;2024-02-26T12:18:03;32.78;;;15.00;;
75787;SDS011;64406;50.024;14.492;2024-02-26T12:20:37;35.30;;;15.77;;
75787;SDS011;64406;50.024;14.492;2024-02-26T12:23:03;34.88;;;17.70;;
75787;SDS011;64406;50.024;14.492;2024-02-26T12:25:29;34.13;;;16.58;;
75787;SDS011;64406;50.024;14.492;2024-02-26T12:27:59;35.95;;;16.08;;
75787;SDS011;64406;50.024;14.492;2024-02-26T12:30:25;31.35;;;15.25;;
75787;SDS011;64406;50.024;14.492;2024-02-26T12:32:52;27.60;;;13.75;;
75787;SDS011;64406;50.024;14.492;2024-02-26T12:35:23;33.03;;;13.80;;
75787;SDS011;64406;50.024;14.492;2024-02-26T12:37:50;27.20;;;14.43;;
75787;SDS011;64406;50.024;14.492;2024-02-26T12:40:16;24.88;;;13.95;;
75787;SDS011;64406;50.024;14.492;2024-02-26T12:42:43;23.80;;;12.68;;
75787;SDS011;64406;50.024;14.492;2024-02-26T12:45:10;30.02;;;13.48;;
75787;SDS011;64406;50.024;14.492;2024-02-26T12:50:06;23.98;;;13.32;;
75787;SDS011;64406;50.024;14.492;2024-02-26T12:52:33;24.73;;;12.90;;
75787;SDS011;64406;50.024;14.492;2024-02-26T12:55:01;22.27;;;12.27;;
75787;SDS011;64406;50.024;14.492;2024-02-26T12:57:34;23.33;;;12.60;;
75787;SDS011;64406;50.024;14.492;2024-02-26T13:00:13;22.73;;;12.68;;
75787;SDS011;64406;50.024;14.492;2024-02-26T13:02:42;22.48;;;12.63;;
75787;SDS011;64406;50.024;14.492;2024-02-26T13:05:10;23.17;;;12.60;;
75787;SDS011;64406;50.024;14.492;2024-02-26T13:07:41;22.58;;;12.55;;
75787;SDS011;64406;50.024;14.492;2024-02-26T13:10:08;21.58;;;11.27;;
75787;SDS011;64406;50.024;14.492;2024-02-26T13:12:34;24.73;;;11.80;;
75787;SDS011;64406;50.024;14.492;2024-02-26T13:15:03;17.40;;;10.80;;
75787;SDS011;64406;50.024;14.492;2024-02-26T13:17:32;23.58;;;11.40;;
75787;SDS011;64406;50.024;14.492;2024-02-26T13:19:58;22.48;;;11.02;;
75787;SDS011;64406;50.024;14.492;2024-02-26T13:22:24;20.23;;;11.07;;
75787;SDS011;64406;50.024;14.492;2024-02-26T13:24:56;20.40;;;11.93;;
75787;SDS011;64406;50.024;14.492;2024-02-26T13:27:23;23.98;;;11.30;;
75787;SDS011;64406;50.024;14.492;2024-02-26T13:29:49;19.10;;;11.07;;
75787;SDS011;64406;50.024;14.492;2024-02-26T13:32:27;22.67;;;11.05;;
75787;SDS011;64406;50.024;14.492;2024-02-26T13:35:09;17.33;;;9.88;;
75787;SDS011;64406;50.024;14.492;2024-02-26T13:37:37;17.20;;;10.27;;
75787;SDS011;64406;50.024;14.492;2024-02-26T13:40:07;20.35;;;10.68;;
75787;SDS011;64406;50.024;14.492;2024-02-26T13:42:34;22.13;;;10.23;;
75787;SDS011;64406;50.024;14.492;2024-02-26T13:45:00;17.23;;;9.45;;
75787;SDS011;64406;50.024;14.492;2024-02-26T13:47:27;21.80;;;11.35;;
75787;SDS011;64406;50.024;14.492;2024-02-26T13:49:53;23.33;;;12.00;;
75787;SDS011;64406;50.024;14.492;2024-02-26T13:52:19;21.27;;;10.93;;
75787;SDS011;64406;50.024;14.492;2024-02-26T13:54:47;19.77;;;10.05;;
75787;SDS011;64406;50.024;14.492;2024-02-26T13:57:13;20.95;;;11.18;;
75787;SDS011;64406;50.024;14.492;2024-02-26T13:59:38;22.20;;;11.77;;
75787;SDS011;64406;50.024;14.492;2024-02-26T14:02:10;17.60;;;9.65;;
75787;SDS011;64406;50.024;14.492;2024-02-26T14:04:36;20.55;;;10.98;;
75787;SDS011;64406;50.024;14.492;2024-02-26T14:07:02;19.40;;;10.70;;
75787;SDS011;64406;50.024;14.492;2024-02-26T14:09:31;19.40;;;10.52;;
75787;SDS011;64406;50.024;14.492;2024-02-26T14:11:58;18.42;;;11.15;;